Saint Joseph, Iowa
Current Conditions -  °F | °C
As of 4:55 AM on Wednesday 22 Oct 2014 (Local Time) from KAXA Reporting Station
Clear Clear  
Wind Chill: 35°   Ceiling: Unl
Heat Index: 43°   Visibility: 10mi
Dew Point: 39°   Wind: 15mph
Humidity: 87%   Direction: 150°SSE
Pressure: 30.16"   Gusts: 22mph
Location:  42.8572°N, 94.2676°W
Report Text: KAXA 220955Z AUTO 15013G19KT 10SM CLR 06/04 A3016 RMK AO2
Loading
Personal Weather Stations






























Interactive Weather Map New forecast layout! Learn more

10-Day Weather Forecast

Advertisements
Track Severe Weather on mobile